In Rescue
 
Open Full Screen Window  High Contrast Mode
March 27, 2023 2:44 AM CDT
Weather Information
Wind Direction
  ---
Wind Speed
  00 kt (0 mph)
Wind Gust
  00 kt (0 mph)
Altimeter
30.20 in
Visibility
10 SM
Temperature
-11° C
12° F
Dewpoint
-14° C
F
Humidity
79%
1hr Rain Fall
00.00 in.
24hr Rain Fall
00.00 in.
Sky Condition
Clear
VFR

METAR KFOZ 270744Z AUTO 00000KT 10SM CLR M11/M14 A3020 RMK AO2

FAA Disclaimer: The data displayed is for advisory purposes only and is not to be used for flight planning or operations.